Chornomors'Ke, Ukraine
Current Conditions -  °F | °C
As of 1:00 AM on Saturday 01 Nov 2014 (Local Time) from URFF Reporting Station
Haze Haze  
Wind Chill: 40°   Ceiling: 2500
Heat Index: 43°   Visibility: 2.3mi
Dew Point: 43°   Wind: 4mph
Humidity: 100%   Direction: 10°N
Pressure: 30"   Gusts: NA
Location:  45.52°N, 32.7°E
Report Text: URFF 312200Z 01002MPS 3700 BR OVC025 06/06 Q1016 01190060 BECMG0600 FG OVC002
Loading
Personal Weather Stations






























Interactive Weather Map
Tropical Storm Tracking
New forecast layout! Learn more

10-Day Weather Forecast

Advertisements
Track Severe Weather on mobile